createdAt,value
2023-03-06T00:01:18.719Z,97120.22
2023-03-06T00:03:48.687Z,96862.50
2023-03-06T00:06:17.191Z,97377.97
2023-03-06T00:08:45.721Z,97635.72
2023-03-06T00:11:15.579Z,97893.50
2023-03-06T00:13:43.986Z,97893.50
2023-03-06T00:16:12.710Z,97635.72
2023-03-06T00:18:41.799Z,97635.72
2023-03-06T00:21:11.589Z,97635.72
2023-03-06T00:23:41.417Z,97893.50
2023-03-06T00:26:10.672Z,97635.72
2023-03-06T00:28:41.068Z,97893.50
2023-03-06T00:31:10.925Z,97893.50
2023-03-06T00:33:39.382Z,97893.50
2023-03-06T00:36:08.355Z,97893.50
2023-03-06T00:38:38.102Z,97893.50
2023-03-06T00:41:10.657Z,97893.50
2023-03-06T00:43:39.111Z,97893.50
2023-03-06T00:46:09.504Z,98151.31
2023-03-06T00:48:38.004Z,97893.50
2023-03-06T00:51:07.218Z,97635.72
2023-03-06T00:53:37.108Z,97635.72
2023-03-06T00:56:05.876Z,97377.97
2023-03-06T00:58:34.177Z,96862.50
2023-03-06T01:01:02.620Z,96347.13
2023-03-06T01:03:31.319Z,96089.47
2023-03-06T01:05:59.814Z,96089.47
2023-03-06T01:08:28.283Z,96089.47
2023-03-06T01:10:59.422Z,96089.47
2023-03-06T01:13:28.258Z,95574.19
2023-03-06T01:15:56.736Z,95574.19
2023-03-06T01:18:25.163Z,95316.59
2023-03-06T01:20:53.774Z,95316.59
2023-03-06T01:23:22.048Z,95059.00
2023-03-06T01:25:50.839Z,95316.59
2023-03-06T01:28:23.031Z,95059.00
2023-03-06T01:30:51.562Z,94801.44
2023-03-06T01:33:20.034Z,95059.00
2023-03-06T01:35:48.513Z,95059.00
2023-03-06T01:38:17.241Z,95574.19
2023-03-06T01:40:46.058Z,95316.59
2023-03-06T01:43:28.531Z,95316.59
2023-03-06T01:46:23.856Z,96089.47
2023-03-06T01:48:57.742Z,96089.47
2023-03-06T01:51:29.669Z,96604.81
2023-03-06T01:54:01.315Z,97120.22
2023-03-06T01:56:30.639Z,97120.22
2023-03-06T01:59:01.675Z,98151.31
2023-03-06T02:01:31.277Z,98924.81
2023-03-06T02:04:01.848Z,99698.47
2023-03-06T02:06:31.112Z,99956.41
2023-03-06T02:09:06.791Z,99956.41
2023-03-06T02:11:35.244Z,100214.34
2023-03-06T02:14:05.132Z,100472.31
2023-03-06T02:16:34.468Z,100472.31
2023-03-06T02:19:05.933Z,99956.41
2023-03-06T02:21:36.968Z,99956.41
2023-03-06T02:24:17.656Z,99440.56
2023-03-06T02:26:48.991Z,98409.13
2023-03-06T02:29:23.066Z,98409.13
2023-03-06T02:31:51.808Z,97893.50
2023-03-06T02:34:53.891Z,97635.72
2023-03-06T02:37:23.850Z,97120.22
2023-03-06T02:39:59.082Z,97120.22
2023-03-06T02:42:30.011Z,97120.22
2023-03-06T02:45:01.901Z,97120.22
2023-03-06T02:47:30.355Z,96862.50
2023-03-06T02:49:58.655Z,96862.50
2023-03-06T02:52:27.015Z,96862.50
2023-03-06T02:54:55.498Z,96604.81
2023-03-06T02:57:24.230Z,96604.81
2023-03-06T02:59:54.291Z,96347.13
2023-03-06T03:02:22.823Z,96089.47
2023-03-06T03:04:51.217Z,96347.13
2023-03-06T03:07:20.146Z,96089.47
2023-03-06T03:09:48.914Z,96604.81
2023-03-06T03:12:17.719Z,96862.50
2023-03-06T03:14:46.641Z,96862.50
2023-03-06T03:17:16.815Z,96604.81
2023-03-06T03:19:47.890Z,96604.81
2023-03-06T03:22:16.737Z,96604.81
2023-03-06T03:24:45.603Z,96347.13
2023-03-06T03:27:14.443Z,96347.13
2023-03-06T03:29:43.012Z,96089.47
2023-03-06T03:32:11.779Z,96089.47
2023-03-06T03:34:44.094Z,95831.81
2023-03-06T03:37:12.478Z,95574.19
2023-03-06T03:39:43.832Z,95574.19
2023-03-06T03:42:12.728Z,95574.19
2023-03-06T03:44:41.117Z,95316.59
2023-03-06T03:47:09.889Z,95316.59
2023-03-06T03:49:38.276Z,95574.19
2023-03-06T03:52:08.448Z,95316.59
2023-03-06T03:54:38.559Z,95059.00
2023-03-06T03:57:06.974Z,94801.44
2023-03-06T03:59:39.540Z,94801.44
2023-03-06T04:02:25.511Z,94801.44
2023-03-06T04:05:09.687Z,94801.44
2023-03-06T04:07:39.542Z,93771.38
2023-03-06T04:10:10.150Z,94028.84
2023-03-06T04:12:39.411Z,94286.38
2023-03-06T04:15:09.548Z,94028.84
2023-03-06T04:17:38.248Z,94543.91
2023-03-06T04:20:11.109Z,94286.38
2023-03-06T04:22:41.192Z,94286.38
2023-03-06T04:25:10.558Z,93513.91
2023-03-06T04:27:38.898Z,92741.59
2023-03-06T04:30:09.205Z,92741.59
2023-03-06T04:32:37.881Z,93256.44
2023-03-06T04:35:07.237Z,92999.00
2023-03-06T04:37:43.252Z,92484.19
2023-03-06T04:40:18.599Z,92999.00
2023-03-06T04:42:47.348Z,93513.91
2023-03-06T04:45:16.719Z,93513.91
2023-03-06T04:47:45.159Z,93256.44
2023-03-06T04:50:13.884Z,93771.38
2023-03-06T04:52:43.765Z,93771.38
2023-03-06T04:55:15.189Z,94286.38
2023-03-06T04:57:45.607Z,94286.38
2023-03-06T05:00:16.554Z,94801.44
2023-03-06T05:02:46.019Z,94801.44
2023-03-06T05:05:15.288Z,94801.44
2023-03-06T05:07:45.698Z,94801.44
2023-03-06T05:10:16.397Z,94543.91
2023-03-06T05:12:45.235Z,93771.38
2023-03-06T05:15:14.390Z,94028.84
2023-03-06T05:17:42.827Z,94286.38
2023-03-06T05:20:13.667Z,94543.91
2023-03-06T05:22:42.461Z,94543.91
2023-03-06T05:25:12.366Z,94543.91
2023-03-06T05:27:41.236Z,94286.38
2023-03-06T05:30:13.952Z,94543.91
2023-03-06T05:32:42.916Z,94543.91
2023-03-06T05:35:18.579Z,94801.44
2023-03-06T05:37:47.382Z,94543.91
2023-03-06T05:40:18.302Z,94543.91
2023-03-06T05:42:47.011Z,94286.38
2023-03-06T05:45:15.474Z,94543.91
2023-03-06T05:47:43.801Z,94801.44
2023-03-06T05:50:14.101Z,94801.44
2023-03-06T05:52:42.522Z,95316.59
2023-03-06T05:55:13.173Z,95831.81
2023-03-06T05:57:42.982Z,96089.47
2023-03-06T06:00:12.967Z,96347.13
2023-03-06T06:02:41.856Z,96347.13
2023-03-06T06:05:12.950Z,96604.81
2023-03-06T06:07:41.980Z,96604.81
2023-03-06T06:10:12.944Z,96862.50
2023-03-06T06:12:42.751Z,97120.22
2023-03-06T06:15:11.836Z,97120.22
2023-03-06T06:17:40.614Z,97377.97
2023-03-06T06:20:11.800Z,97377.97
2023-03-06T06:22:40.106Z,97635.72
2023-03-06T06:25:09.329Z,97377.97
2023-03-06T06:27:37.793Z,97635.72
2023-03-06T06:30:12.068Z,97377.97
2023-03-06T06:34:19.402Z,96862.50
2023-03-06T06:36:48.117Z,96862.50
2023-03-06T06:39:18.311Z,97120.22
2023-03-06T06:42:02.398Z,96862.50
2023-03-06T06:44:36.634Z,96862.50
2023-03-06T06:47:23.466Z,96862.50
2023-03-06T06:49:57.337Z,96862.50
2023-03-06T06:52:26.325Z,96347.13
2023-03-06T06:54:54.968Z,96604.81
2023-03-06T06:57:23.521Z,96604.81
2023-03-06T06:59:53.959Z,96604.81
2023-03-06T07:02:22.955Z,96604.81
2023-03-06T07:05:06.928Z,96347.13
2023-03-06T07:07:38.630Z,96347.13
2023-03-06T07:10:08.930Z,96604.81
2023-03-06T07:12:38.656Z,96347.13
2023-03-06T07:15:08.307Z,96089.47
2023-03-06T07:17:36.710Z,95831.81
2023-03-06T07:20:07.019Z,96347.13
2023-03-06T07:22:49.897Z,95831.81
2023-03-06T07:25:19.996Z,95059.00
2023-03-06T07:27:53.297Z,94801.44
2023-03-06T07:30:25.611Z,94801.44
2023-03-06T07:32:55.885Z,93256.44
2023-03-06T07:35:26.188Z,94286.38
2023-03-06T07:37:56.314Z,92999.00
2023-03-06T07:40:25.794Z,93513.91
2023-03-06T07:42:56.493Z,93513.91
2023-03-06T07:45:36.306Z,92999.00
2023-03-06T07:48:06.233Z,93513.91
2023-03-06T07:50:35.201Z,92999.00
2023-03-06T07:53:05.013Z,92999.00
2023-03-06T07:55:33.390Z,92484.19
2023-03-06T07:58:01.765Z,92999.00
2023-03-06T08:00:30.279Z,92741.59
2023-03-06T08:02:58.911Z,92999.00
2023-03-06T08:05:27.315Z,91712.13
2023-03-06T08:07:55.762Z,91712.13
2023-03-06T08:10:25.839Z,92226.81
2023-03-06T08:12:54.492Z,92226.81
2023-03-06T08:15:23.097Z,90425.72
2023-03-06T08:17:52.331Z,90425.72
2023-03-06T08:20:20.946Z,90682.97
2023-03-06T08:22:50.001Z,90682.97
2023-03-06T08:25:18.699Z,89396.97
2023-03-06T08:27:48.674Z,90168.50
2023-03-06T08:30:17.781Z,88882.69
2023-03-06T08:32:46.519Z,89396.97
2023-03-06T08:35:15.257Z,89654.13
2023-03-06T08:37:43.879Z,89396.97
2023-03-06T08:40:14.156Z,88882.69
2023-03-06T08:42:42.678Z,89396.97
2023-03-06T08:45:13.164Z,91969.47
2023-03-06T08:47:41.477Z,92226.81
2023-03-06T08:50:11.415Z,89911.31
2023-03-06T08:52:39.910Z,90682.97
2023-03-06T08:55:09.275Z,90168.50
2023-03-06T08:57:37.580Z,89654.13
2023-03-06T09:00:08.985Z,89911.31
2023-03-06T09:02:38.827Z,91197.50
2023-03-06T09:05:08.245Z,91712.13
2023-03-06T09:07:36.814Z,91712.13
2023-03-06T09:10:05.856Z,91712.13
2023-03-06T09:12:47.393Z,91712.13
2023-03-06T09:15:18.318Z,91969.47
2023-03-06T09:17:48.484Z,91197.50
2023-03-06T09:20:17.052Z,92226.81
2023-03-06T09:22:46.711Z,91712.13
2023-03-06T09:25:20.261Z,90940.22
2023-03-06T09:28:01.833Z,91712.13
2023-03-06T09:30:33.798Z,91454.81
2023-03-06T09:33:03.628Z,93256.44
2023-03-06T09:35:32.037Z,91712.13
2023-03-06T09:38:00.527Z,92226.81
2023-03-06T09:40:40.726Z,93771.38
2023-03-06T09:43:18.864Z,92999.00
2023-03-06T09:45:47.455Z,90940.22
2023-03-06T09:48:23.110Z,90682.97
2023-03-06T09:50:58.243Z,91712.13
2023-03-06T09:53:41.452Z,91197.50
2023-03-06T09:56:16.313Z,86569.41
2023-03-06T09:58:50.288Z,82974.03
2023-03-06T10:01:22.584Z,83744.16
2023-03-06T10:03:56.711Z,80921.25
2023-03-06T10:06:29.959Z,83230.72
2023-03-06T10:09:03.659Z,78613.28
2023-03-06T10:11:37.044Z,79638.84
2023-03-06T10:14:22.828Z,71954.59
2023-03-06T10:16:51.310Z,65566.19
2023-03-06T10:19:22.490Z,65598.13
2023-03-06T10:21:59.570Z,71954.59
2023-03-06T10:24:45.276Z,62602.72
2023-03-06T10:27:23.676Z,68009.09
2023-03-06T10:30:03.282Z,60795.19
2023-03-06T10:32:48.863Z,60811.13
2023-03-06T10:35:23.484Z,60390.75
2023-03-06T10:37:52.052Z,57047.66
2023-03-06T10:40:36.746Z,56924.28
2023-03-06T10:43:12.386Z,56390.97
2023-03-06T10:45:50.298Z,56172.13
2023-03-06T10:48:24.318Z,55963.22
2023-03-06T10:50:55.027Z,55495.69
2023-03-06T10:53:26.988Z,55561.34
2023-03-06T10:55:57.417Z,55143.63
2023-03-06T10:58:28.194Z,55348.50
2023-03-06T11:01:06.908Z,54962.63
2023-03-06T11:03:36.542Z,54879.09
2023-03-06T11:06:13.143Z,54544.97
2023-03-06T11:08:44.226Z,54628.50
2023-03-06T11:11:22.434Z,54572.81
2023-03-06T11:13:59.766Z,54688.16
2023-03-06T11:16:30.555Z,54529.06
2023-03-06T11:19:01.482Z,54401.81
2023-03-06T11:21:33.649Z,54342.16
2023-03-06T11:24:08.704Z,54320.28
2023-03-06T11:26:46.982Z,54306.34
2023-03-06T11:29:29.600Z,54346.13
2023-03-06T11:32:05.554Z,54451.53
2023-03-06T11:34:43.151Z,54300.38
2023-03-06T11:37:21.894Z,54306.34
2023-03-06T11:39:58.139Z,54334.19
2023-03-06T11:42:31.402Z,54338.16
2023-03-06T11:45:13.628Z,54284.47
2023-03-06T11:47:45.390Z,54262.59
2023-03-06T11:50:22.958Z,54264.59
2023-03-06T11:52:56.704Z,54324.25
2023-03-06T11:55:38.537Z,54336.19
2023-03-06T11:58:33.512Z,54332.19
2023-03-06T12:01:07.500Z,54292.44
2023-03-06T12:04:06.409Z,54222.84
2023-03-06T12:06:48.631Z,54250.69
2023-03-06T12:09:27.850Z,54284.47
2023-03-06T12:12:10.038Z,54280.50
2023-03-06T12:14:55.046Z,54258.63
2023-03-06T12:17:33.185Z,54260.63
2023-03-06T12:20:21.378Z,54183.06
2023-03-06T12:22:57.689Z,54189.03
2023-03-06T12:25:37.856Z,54171.13
2023-03-06T12:28:27.512Z,54171.13
2023-03-06T12:31:18.520Z,54169.16
2023-03-06T12:34:01.027Z,54133.34
2023-03-06T12:36:42.750Z,54113.47
2023-03-06T12:39:19.228Z,54151.25
2023-03-06T12:42:23.513Z,54131.38
2023-03-06T12:45:05.330Z,54195.00
2023-03-06T12:47:42.503Z,54135.34
2023-03-06T12:50:20.164Z,54171.13
2023-03-06T12:52:49.713Z,54226.81
2023-03-06T12:55:23.677Z,54222.84
2023-03-06T12:57:55.140Z,54181.06
2023-03-06T13:01:03.627Z,54127.38
2023-03-06T13:03:45.209Z,54131.38
2023-03-06T13:06:32.418Z,54127.38
2023-03-06T13:09:13.443Z,54107.50
2023-03-06T13:12:09.137Z,54083.66
2023-03-06T13:15:26.176Z,54059.78
2023-03-06T13:17:56.565Z,54061.78
2023-03-06T13:20:36.484Z,53976.28
2023-03-06T13:23:53.332Z,54008.09
2023-03-06T13:26:54.776Z,54006.09
2023-03-06T13:30:02.589Z,54024.00
2023-03-06T13:32:34.623Z,54014.06
2023-03-06T13:35:48.679Z,54004.09
2023-03-06T13:38:56.241Z,53940.47
2023-03-06T13:41:37.769Z,53918.59
2023-03-06T13:44:48.870Z,53954.41
2023-03-06T13:48:05.719Z,53964.34
2023-03-06T13:50:35.985Z,53952.41
2023-03-06T13:53:37.853Z,53942.47
2023-03-06T13:56:34.103Z,54002.13
2023-03-06T13:59:20.905Z,54008.09
2023-03-06T14:02:00.962Z,54002.13
2023-03-06T14:04:39.883Z,53986.22
2023-03-06T14:07:28.864Z,54025.97
2023-03-06T14:10:03.244Z,53984.22
2023-03-06T14:12:35.510Z,53992.19
2023-03-06T14:15:13.458Z,53996.16
2023-03-06T14:17:53.937Z,53952.41
2023-03-06T14:20:24.848Z,53976.28
2023-03-06T14:22:54.653Z,53974.28
2023-03-06T14:25:29.741Z,54022.00
2023-03-06T14:28:09.155Z,53986.22
2023-03-06T14:30:50.978Z,54008.09
2023-03-06T14:33:30.672Z,54059.78
2023-03-06T14:36:02.936Z,54047.84
2023-03-06T14:38:36.673Z,54053.81
2023-03-06T14:41:07.590Z,54081.66
2023-03-06T14:43:36.240Z,54141.31
2023-03-06T14:46:07.331Z,54234.75
2023-03-06T14:48:42.062Z,54371.97
2023-03-06T14:51:18.242Z,54479.34
2023-03-06T14:53:50.287Z,54644.41
2023-03-06T14:56:20.691Z,55038.22
2023-03-06T14:58:58.796Z,55804.06
2023-03-06T15:01:33.284Z,56989.94
2023-03-06T15:04:02.676Z,59492.44
2023-03-06T15:06:35.591Z,62162.19
2023-03-06T15:09:15.056Z,68158.84
2023-03-06T15:11:53.495Z,75538.44
2023-03-06T15:14:23.745Z,81434.31
2023-03-06T15:16:52.265Z,82974.03
2023-03-06T15:19:21.917Z,84514.44
2023-03-06T15:21:52.000Z,82460.72
2023-03-06T15:24:36.812Z,80664.72
2023-03-06T15:27:06.899Z,81947.50
2023-03-06T15:29:39.061Z,78869.66
2023-03-06T15:32:16.197Z,76819.28
2023-03-06T15:34:44.668Z,74514.09
2023-03-06T15:37:29.553Z,76306.91
2023-03-06T15:40:09.542Z,74770.16
2023-03-06T15:42:38.057Z,76050.72
2023-03-06T15:45:16.364Z,77075.53
2023-03-06T15:47:45.205Z,71442.94
2023-03-06T15:50:17.954Z,75282.31
2023-03-06T15:52:47.078Z,76819.28
2023-03-06T15:55:18.862Z,78356.94
2023-03-06T15:57:53.022Z,77331.78
2023-03-06T16:00:28.267Z,78613.28
2023-03-06T16:02:57.511Z,79382.44
2023-03-06T16:05:26.671Z,79895.28
2023-03-06T16:07:55.824Z,80151.75
2023-03-06T16:10:28.613Z,80408.22
2023-03-06T16:12:58.995Z,81690.91
2023-03-06T16:15:29.246Z,82460.72
2023-03-06T16:17:58.758Z,81434.31
2023-03-06T16:20:29.231Z,81947.50
2023-03-06T16:22:57.673Z,83744.16
2023-03-06T16:25:29.030Z,84000.91
2023-03-06T16:27:59.134Z,84514.44
2023-03-06T16:30:29.452Z,84257.66
2023-03-06T16:32:58.375Z,85284.91
2023-03-06T16:35:27.292Z,85798.66
2023-03-06T16:37:55.855Z,86055.56
2023-03-06T16:40:26.604Z,86569.41
2023-03-06T16:42:56.728Z,86826.34
2023-03-06T16:45:25.825Z,87083.34
2023-03-06T16:47:54.577Z,87340.31
2023-03-06T16:50:26.603Z,87083.34
2023-03-06T16:52:56.517Z,87083.34
2023-03-06T16:55:25.609Z,86569.41
2023-03-06T16:57:54.487Z,86055.56
2023-03-06T17:00:28.585Z,85541.78
2023-03-06T17:02:58.994Z,84771.25
2023-03-06T17:05:27.656Z,84257.66
2023-03-06T17:07:56.492Z,82974.03
2023-03-06T17:10:26.495Z,82204.09
2023-03-06T17:12:56.560Z,79895.28
2023-03-06T17:15:26.353Z,79382.44
2023-03-06T17:17:54.694Z,78613.28
2023-03-06T17:20:23.985Z,76819.28
2023-03-06T17:22:52.528Z,76819.28
2023-03-06T17:25:21.367Z,76819.28
2023-03-06T17:27:51.906Z,75538.44
2023-03-06T17:30:20.489Z,74258.06
2023-03-06T17:32:50.437Z,73746.06
2023-03-06T17:35:18.932Z,74514.09
2023-03-06T17:37:47.338Z,75282.31
2023-03-06T17:40:16.660Z,73490.06
2023-03-06T17:42:45.038Z,73746.06
2023-03-06T17:45:13.953Z,71954.59
2023-03-06T17:47:42.436Z,69734.56
2023-03-06T17:50:13.353Z,71954.59
2023-03-06T17:52:42.285Z,71698.75
2023-03-06T17:55:11.556Z,70156.09
2023-03-06T17:57:40.336Z,69063.47
2023-03-06T18:00:11.002Z,69908.38
2023-03-06T18:02:45.493Z,67895.31
2023-03-06T18:05:15.854Z,66677.66
2023-03-06T18:07:44.409Z,66442.16
2023-03-06T18:10:12.995Z,65863.47
2023-03-06T18:12:41.582Z,66635.75
2023-03-06T18:15:10.948Z,64826.06
2023-03-06T18:17:39.773Z,63850.81
2023-03-06T18:20:09.149Z,63266.56
2023-03-06T18:22:39.148Z,62909.72
2023-03-06T18:25:08.859Z,62792.09
2023-03-06T18:27:37.516Z,61923.03
2023-03-06T18:30:07.250Z,59817.06
2023-03-06T18:32:36.693Z,59277.34
2023-03-06T18:35:06.047Z,58795.47
2023-03-06T18:37:35.053Z,58855.19
2023-03-06T18:40:05.378Z,58454.97
2023-03-06T18:42:34.171Z,57618.88
2023-03-06T18:45:03.207Z,57600.97
2023-03-06T18:47:31.874Z,57405.91
2023-03-06T18:50:00.340Z,57230.75
2023-03-06T18:52:28.698Z,57077.50
2023-03-06T18:54:57.121Z,56948.16
2023-03-06T18:57:28.724Z,56713.34
2023-03-06T18:59:58.885Z,56562.09
2023-03-06T19:02:27.513Z,56134.31
2023-03-06T19:04:56.288Z,56032.84
2023-03-06T19:07:25.157Z,55710.56
2023-03-06T19:09:53.729Z,55485.75
2023-03-06T19:12:22.382Z,55253.03
2023-03-06T19:14:52.195Z,55257.00
2023-03-06T19:17:20.678Z,55195.34
2023-03-06T19:19:51.527Z,55081.97
2023-03-06T19:22:20.089Z,55004.41
2023-03-06T19:24:50.200Z,54994.47
2023-03-06T19:27:18.768Z,55028.25
2023-03-06T19:29:47.158Z,55030.25
2023-03-06T19:32:17.096Z,55010.38
2023-03-06T19:34:45.654Z,55012.34
2023-03-06T19:37:14.145Z,55006.38
2023-03-06T19:39:44.846Z,54978.53
2023-03-06T19:42:13.973Z,54922.84
2023-03-06T19:44:42.452Z,54893.03
2023-03-06T19:47:11.261Z,54887.06
2023-03-06T19:49:43.305Z,54805.50
2023-03-06T19:52:11.783Z,54797.56
2023-03-06T19:54:40.537Z,54775.69
2023-03-06T19:57:09.286Z,54787.63
2023-03-06T19:59:38.019Z,54791.59
2023-03-06T20:02:07.119Z,54817.44
2023-03-06T20:04:36.087Z,54775.69
2023-03-06T20:07:08.645Z,54791.59
2023-03-06T20:09:39.915Z,54725.97
2023-03-06T20:12:08.592Z,54767.72
2023-03-06T20:14:37.108Z,54751.81
2023-03-06T20:17:05.600Z,54811.47
2023-03-06T20:19:36.846Z,54805.50
2023-03-06T20:22:07.063Z,54843.28
2023-03-06T20:24:35.494Z,54827.38
2023-03-06T20:27:03.856Z,54831.38
2023-03-06T20:29:32.409Z,54873.13
2023-03-06T20:32:01.062Z,54918.88
2023-03-06T20:34:29.612Z,54926.84
2023-03-06T20:36:58.215Z,54952.69
2023-03-06T20:39:28.181Z,55000.41
2023-03-06T20:41:56.579Z,55006.38
2023-03-06T20:44:25.129Z,55052.13
2023-03-06T20:46:55.266Z,55058.09
2023-03-06T20:49:26.129Z,55111.81
2023-03-06T20:51:56.793Z,55155.56
2023-03-06T20:54:27.152Z,55270.94
2023-03-06T20:56:55.614Z,55422.09
2023-03-06T20:59:24.057Z,55587.22
2023-03-06T21:01:52.636Z,55865.72
2023-03-06T21:04:21.115Z,56327.31
2023-03-06T21:06:49.546Z,56840.69
2023-03-06T21:09:19.281Z,57469.59
2023-03-06T21:11:49.521Z,58218.06
2023-03-06T21:14:17.961Z,59249.47
2023-03-06T21:16:46.524Z,60217.44
2023-03-06T21:19:15.232Z,62160.22
2023-03-06T21:21:43.695Z,64461.06
2023-03-06T21:24:12.220Z,66196.72
2023-03-06T21:26:40.736Z,68059.03
2023-03-06T21:29:10.679Z,71442.94
2023-03-06T21:31:40.477Z,73746.06
2023-03-06T21:34:10.639Z,75282.31
2023-03-06T21:36:39.167Z,77075.53
2023-03-06T21:39:07.986Z,78100.63
2023-03-06T21:41:38.132Z,78613.28
2023-03-06T21:44:08.144Z,80408.22
2023-03-06T21:46:38.261Z,81177.78
2023-03-06T21:49:06.802Z,82460.72
2023-03-06T21:51:35.716Z,82974.03
2023-03-06T21:54:04.697Z,84000.91
2023-03-06T21:56:34.202Z,84514.44
2023-03-06T21:59:02.777Z,84514.44
2023-03-06T22:01:31.353Z,84771.25
2023-03-06T22:04:01.260Z,85541.78
2023-03-06T22:06:31.196Z,86312.47
2023-03-06T22:09:01.382Z,86569.41
2023-03-06T22:11:31.569Z,87340.31
2023-03-06T22:14:00.505Z,87597.34
2023-03-06T22:16:29.030Z,88368.50
2023-03-06T22:18:58.117Z,89139.81
2023-03-06T22:21:27.953Z,89139.81
2023-03-06T22:23:58.657Z,89911.31
2023-03-06T22:26:27.886Z,90940.22
2023-03-06T22:28:56.584Z,91712.13
2023-03-06T22:31:27.096Z,91969.47
2023-03-06T22:33:56.394Z,92741.59
2023-03-06T22:36:27.404Z,93256.44
2023-03-06T22:38:59.834Z,93771.38
2023-03-06T22:41:29.083Z,94286.38
2023-03-06T22:43:58.208Z,95316.59
2023-03-06T22:46:27.511Z,95831.81
2023-03-06T22:48:57.113Z,96862.50
2023-03-06T22:51:26.229Z,97377.97
2023-03-06T22:53:54.601Z,97893.50
2023-03-06T22:56:24.432Z,98409.13
2023-03-06T22:58:52.792Z,99182.69
2023-03-06T23:01:23.287Z,99440.56
2023-03-06T23:03:53.139Z,99956.41
2023-03-06T23:06:23.799Z,100730.31
2023-03-06T23:08:54.321Z,100472.31
2023-03-06T23:11:25.806Z,101246.34
2023-03-06T23:14:13.819Z,101762.47
2023-03-06T23:17:01.191Z,102020.53
2023-03-06T23:19:50.759Z,102278.66
2023-03-06T23:22:37.835Z,102278.66
2023-03-06T23:25:25.073Z,102536.75
2023-03-06T23:27:55.795Z,103053.06
2023-03-06T23:30:24.275Z,103053.06
2023-03-06T23:32:52.672Z,103569.44
2023-03-06T23:35:21.231Z,103827.66
2023-03-06T23:37:49.657Z,104344.16
2023-03-06T23:40:18.944Z,104602.44
2023-03-06T23:42:47.601Z,104602.44
2023-03-06T23:45:17.550Z,104602.44
2023-03-06T23:47:46.236Z,104860.72
2023-03-06T23:50:15.142Z,104602.44
2023-03-06T23:52:43.749Z,105119.03
2023-03-06T23:55:12.724Z,105119.03
2023-03-06T23:57:41.226Z,105377.34
